Time;durP1;ratioP1;P1;durP2;ratioP2;P2;SDS_P1;SDS_P2;PMS_P1;PMS_P2;Temp;Humidity;BMP_temperature;BMP_pressure;BME280_temperature;BME280_humidity;BME280_pressure;Samples;Min_cycle;Max_cycle;Signal;HPM_P1;HPM_P2
2022/05/17 00:01:11;;;;;;;19.43;8.30;;;10.40;92.60;;;;;;5093183;28;20207;-66
2022/05/17 00:03:39;;;;;;;15.37;6.60;;;10.40;92.60;;;;;;5093442;28;20200;-65
2022/05/17 00:06:06;;;;;;;11.70;5.87;;;10.30;92.70;;;;;;5093602;28;20572;-66
2022/05/17 00:08:33;;;;;;;12.30;5.40;;;10.30;92.80;;;;;;5093558;28;20200;-67
2022/05/17 00:11:00;;;;;;;9.07;4.97;;;10.30;92.90;;;;;;5093223;28;20203;-67
2022/05/17 00:13:27;;;;;;;9.27;5.33;;;10.30;92.90;;;;;;5093127;28;20224;-66
2022/05/17 00:15:55;;;;;;;10.53;5.53;;;10.30;93.00;;;;;;5093231;28;20242;-66
2022/05/17 00:18:23;;;;;;;8.67;4.57;;;10.30;93.00;;;;;;5093082;28;20213;-66
2022/05/17 00:20:52;;;;;;;7.97;4.73;;;10.30;93.00;;;;;;5093145;28;20724;-66
2022/05/17 00:23:19;;;;;;;8.83;4.60;;;10.20;93.10;;;;;;5092781;28;20203;-66
2022/05/17 00:25:49;;;;;;;9.00;4.60;;;10.30;93.20;;;;;;5093073;28;20577;-67
2022/05/17 00:28:19;;;;;;;9.20;4.37;;;10.20;93.20;;;;;;5093116;28;20212;-66
2022/05/17 00:30:46;;;;;;;10.07;4.50;;;10.20;93.30;;;;;;5092695;28;20212;-66
2022/05/17 00:33:13;;;;;;;7.70;4.37;;;10.30;93.20;;;;;;5092381;28;20224;-66
2022/05/17 00:35:43;;;;;;;12.33;4.40;;;10.30;93.40;;;;;;5092982;28;20204;-66
2022/05/17 00:38:12;;;;;;;10.43;4.60;;;10.30;93.50;;;;;;5092540;28;20608;-65
2022/05/17 00:40:40;;;;;;;8.57;4.10;;;10.30;93.70;;;;;;5092782;28;20211;-65
2022/05/17 00:43:08;;;;;;;9.57;4.17;;;10.20;93.90;;;;;;5092597;28;20585;-66
2022/05/17 00:45:34;;;;;;;9.00;4.03;;;10.10;94.20;;;;;;5092600;28;20201;-66
2022/05/17 00:48:05;;;;;;;15.93;4.17;;;10.00;94.40;;;;;;5092493;28;20227;-66
2022/05/17 00:50:35;;;;;;;9.57;3.97;;;10.00;94.70;;;;;;5092580;28;20241;-65
2022/05/17 00:53:06;;;;;;;5.97;3.67;;;10.00;94.90;;;;;;5092673;28;20216;-66
2022/05/17 00:55:38;;;;;;;6.67;3.13;;;9.90;94.70;;;;;;5092287;28;20371;-65
2022/05/17 00:58:10;;;;;;;6.87;3.87;;;9.80;94.80;;;;;;5091995;28;20304;-65
2022/05/17 01:00:40;;;;;;;9.80;3.63;;;9.90;94.60;;;;;;5092421;28;20630;-66
2022/05/17 01:03:10;;;;;;;9.93;3.43;;;9.90;94.80;;;;;;5092327;28;20192;-65
2022/05/17 01:05:41;;;;;;;8.63;3.67;;;9.90;94.80;;;;;;5092123;28;20211;-66
2022/05/17 01:08:11;;;;;;;7.53;3.67;;;10.00;94.90;;;;;;5092293;28;20202;-66
2022/05/17 01:10:40;;;;;;;9.50;3.40;;;10.00;94.90;;;;;;5092353;28;20204;-66
2022/05/17 01:15:52;;;;;;;9.90;3.60;;;10.00;94.90;;;;;;5092119;28;20559;-66
2022/05/17 01:18:19;;;;;;;8.87;3.47;;;10.00;94.90;;;;;;5092218;28;20657;-67
2022/05/17 01:20:46;;;;;;;9.47;3.17;;;10.00;94.70;;;;;;5092668;28;20207;-67
2022/05/17 01:23:15;;;;;;;6.27;3.10;;;9.90;94.70;;;;;;5092305;28;20309;-66
2022/05/17 01:25:42;;;;;;;7.67;3.47;;;9.90;94.80;;;;;;5092036;28;20208;-66
2022/05/17 01:28:13;;;;;;;5.40;3.10;;;9.90;94.90;;;;;;5091719;28;20204;-66
2022/05/17 01:30:41;;;;;;;5.53;3.30;;;9.90;95.00;;;;;;5092101;28;20192;-66
2022/05/17 01:33:12;;;;;;;8.30;3.20;;;9.90;95.00;;;;;;5091769;28;20223;-66
2022/05/17 01:35:39;;;;;;;5.60;3.20;;;9.80;95.00;;;;;;5092153;28;20658;-66
2022/05/17 01:38:06;;;;;;;5.43;2.87;;;9.70;95.00;;;;;;5091386;28;20231;-66
2022/05/17 01:40:35;;;;;;;7.37;3.17;;;9.70;95.00;;;;;;5091974;28;20204;-65
2022/05/17 01:43:01;;;;;;;7.37;2.63;;;9.60;95.10;;;;;;5091589;28;20215;-66
2022/05/17 01:45:28;;;;;;;6.30;2.93;;;9.50;95.20;;;;;;5091738;28;20592;-65
2022/05/17 01:47:55;;;;;;;5.10;2.80;;;9.50;95.20;;;;;;5091576;28;20222;-66
2022/05/17 01:50:22;;;;;;;4.00;2.50;;;9.50;95.10;;;;;;5092005;28;20203;-66
2022/05/17 01:52:49;;;;;;;5.17;2.80;;;9.50;95.20;;;;;;5091595;28;20222;-66
2022/05/17 01:55:16;;;;;;;6.77;2.73;;;9.40;95.40;;;;;;5091807;28;20661;-64
2022/05/17 01:57:44;;;;;;;4.83;3.00;;;9.40;95.50;;;;;;5091968;28;20567;-65
2022/05/17 02:00:14;;;;;;;7.87;2.70;;;9.30;95.50;;;;;;5091713;28;20211;-66
2022/05/17 02:02:41;;;;;;;8.10;2.87;;;9.30;95.80;;;;;;5091822;28;20197;-65
2022/05/17 02:05:09;;;;;;;9.13;2.77;;;9.20;96.00;;;;;;5091671;28;20200;-65
2022/05/17 02:07:36;;;;;;;6.97;3.00;;;9.20;96.40;;;;;;5091716;28;20575;-65
2022/05/17 02:10:03;;;;;;;5.53;2.57;;;9.20;96.40;;;;;;5092290;28;20211;-66
2022/05/17 02:12:30;;;;;;;4.50;2.63;;;9.20;96.50;;;;;;5095502;28;20224;-64
2022/05/17 02:14:58;;;;;;;7.13;3.23;;;9.20;96.50;;;;;;5095038;28;20214;-66
2022/05/17 02:17:25;;;;;;;6.57;2.90;;;9.20;96.50;;;;;;5095440;28;20672;-66
2022/05/17 02:19:52;;;;;;;7.50;2.93;;;9.20;96.40;;;;;;5095062;28;20204;-65
2022/05/17 02:22:18;;;;;;;11.13;3.03;;;9.20;96.40;;;;;;5095071;28;20200;-66
2022/05/17 02:24:45;;;;;;;3.57;2.20;;;9.20;96.50;;;;;;5095554;28;20208;-66
2022/05/17 02:27:12;;;;;;;3.60;2.50;;;9.20;96.40;;;;;;5095132;28;20634;-65
2022/05/17 02:29:39;;;;;;;5.20;2.53;;;9.20;96.50;;;;;;5095206;28;20250;-66
2022/05/17 02:32:07;;;;;;;5.23;2.50;;;9.20;96.50;;;;;;5095152;28;20212;-66
2022/05/17 02:34:36;;;;;;;5.40;2.60;;;9.20;96.50;;;;;;5095181;28;20208;-65
2022/05/17 02:37:03;;;;;;;5.93;2.50;;;9.10;96.50;;;;;;5094692;28;20208;-66
2022/05/17 02:39:30;;;;;;;3.53;2.30;;;9.10;96.60;;;;;;5094779;28;20236;-65
2022/05/17 02:41:57;;;;;;;5.73;2.53;;;9.10;96.70;;;;;;5094615;28;20215;-66
2022/05/17 02:44:24;;;;;;;5.13;2.60;;;9.10;96.80;;;;;;5095147;28;20204;-66
2022/05/17 02:46:51;;;;;;;5.13;2.60;;;9.20;96.80;;;;;;5094797;28;20211;-66
2022/05/17 02:49:19;;;;;;;5.33;2.60;;;9.30;96.90;;;;;;5094969;28;20689;-66
2022/05/17 02:51:46;;;;;;;5.90;2.20;;;9.30;96.70;;;;;;5094665;28;20208;-66
2022/05/17 02:54:12;;;;;;;3.73;2.33;;;9.30;96.80;;;;;;5094772;28;20575;-66
2022/05/17 02:56:39;;;;;;;3.50;2.50;;;9.30;96.90;;;;;;5094804;28;20204;-67
2022/05/17 02:59:06;;;;;;;5.23;2.30;;;9.30;96.90;;;;;;5094651;28;20568;-66
2022/05/17 03:01:33;;;;;;;6.67;2.67;;;9.30;96.90;;;;;;5094844;28;20654;-66
2022/05/17 03:04:01;;;;;;;3.10;2.20;;;9.40;96.70;;;;;;5094396;28;20265;-67
2022/05/17 03:06:29;;;;;;;5.57;2.23;;;9.40;96.70;;;;;;5094521;28;20567;-65
2022/05/17 03:08:56;;;;;;;3.47;2.10;;;9.40;96.70;;;;;;5093937;28;20215;-66
2022/05/17 03:11:23;;;;;;;4.97;2.23;;;9.40;96.60;;;;;;5094347;28;20619;-66
2022/05/17 03:13:50;;;;;;;4.07;2.10;;;9.50;96.60;;;;;;5093892;28;20227;-66
2022/05/17 03:16:16;;;;;;;3.30;2.30;;;9.50;96.70;;;;;;5093991;28;20207;-67
2022/05/17 03:18:43;;;;;;;6.37;2.40;;;9.50;96.70;;;;;;5093791;28;20219;-65
2022/05/17 03:21:10;;;;;;;4.80;2.10;;;9.60;96.70;;;;;;5093999;28;20200;-66
2022/05/17 03:23:38;;;;;;;4.30;2.40;;;9.70;96.60;;;;;;5094121;28;20211;-67
2022/05/17 03:26:05;;;;;;;6.17;2.50;;;9.70;96.70;;;;;;5094107;28;20628;-67
2022/05/17 03:28:32;;;;;;;4.43;2.30;;;9.70;97.10;;;;;;5094281;28;20633;-66
2022/05/17 03:30:59;;;;;;;7.87;2.60;;;9.80;97.40;;;;;;5094048;28;20207;-65
2022/05/17 03:33:25;;;;;;;6.63;2.40;;;9.80;97.50;;;;;;5093782;28;20224;-65
2022/05/17 03:35:52;;;;;;;4.10;2.50;;;9.80;97.40;;;;;;5093416;28;20207;-66
2022/05/17 03:38:19;;;;;;;6.40;2.50;;;9.80;97.50;;;;;;5093773;28;20232;-65
2022/05/17 03:40:47;;;;;;;5.90;2.80;;;9.90;97.30;;;;;;5094171;28;20597;-66
2022/05/17 03:43:16;;;;;;;5.10;2.70;;;9.90;97.20;;;;;;5093887;28;20223;-66
2022/05/17 03:45:43;;;;;;;5.63;2.60;;;10.00;97.50;;;;;;5093620;28;20227;-66
2022/05/17 03:48:10;;;;;;;7.20;2.40;;;10.00;97.50;;;;;;5093821;28;20199;-66
2022/05/17 03:50:37;;;;;;;3.53;2.10;;;10.00;97.50;;;;;;5093607;28;20688;-66
2022/05/17 03:53:04;;;;;;;5.57;2.07;;;10.10;97.60;;;;;;5093632;28;20278;-65
2022/05/17 03:55:31;;;;;;;5.13;2.40;;;10.10;97.60;;;;;;5093262;28;20204;-67
2022/05/17 03:57:59;;;;;;;5.43;2.00;;;10.20;97.60;;;;;;5093396;28;20201;-66
2022/05/17 04:00:26;;;;;;;7.63;2.40;;;10.20;97.60;;;;;;5093153;28;20487;-66
2022/05/17 04:02:53;;;;;;;3.97;2.30;;;10.30;97.70;;;;;;5093432;28;20604;-66
2022/05/17 04:05:19;;;;;;;4.07;2.13;;;10.30;97.60;;;;;;5093269;28;20313;-65
2022/05/17 04:07:46;;;;;;;5.00;2.07;;;10.40;97.70;;;;;;5093162;28;20211;-65
2022/05/17 04:10:16;;;;;;;3.40;2.20;;;10.40;97.60;;;;;;5093156;28;20204;-65
2022/05/17 04:12:43;;;;;;;4.60;2.40;;;10.40;97.60;;;;;;5093364;28;20220;-66
2022/05/17 04:15:14;;;;;;;7.07;2.13;;;10.50;97.70;;;;;;5093299;28;20613;-66
2022/05/17 04:17:41;;;;;;;2.30;1.80;;;10.60;97.80;;;;;;5093005;28;20192;-66
2022/05/17 04:20:10;;;;;;;2.97;1.97;;;10.60;97.70;;;;;;5092999;28;20204;-65
2022/05/17 04:22:37;;;;;;;4.00;2.30;;;10.70;97.50;;;;;;5092898;28;20606;-66
2022/05/17 04:25:05;;;;;;;4.57;2.10;;;10.80;97.70;;;;;;5093091;28;20204;-67
2022/05/17 04:27:32;;;;;;;4.07;2.00;;;10.90;97.70;;;;;;5092280;28;20310;-66
2022/05/17 04:29:59;;;;;;;14.90;2.27;;;10.90;97.50;;;;;;5092418;28;20302;-66
2022/05/17 04:32:27;;;;;;;8.33;2.00;;;11.00;97.50;;;;;;5092537;28;20563;-67
2022/05/17 04:34:54;;;;;;;3.10;2.07;;;11.10;97.50;;;;;;5092695;28;20259;-66
2022/05/17 04:37:22;;;;;;;3.90;2.17;;;11.20;97.50;;;;;;5092270;28;20200;-65
2022/05/17 04:39:49;;;;;;;5.03;2.20;;;11.20;97.30;;;;;;5092085;28;20235;-67
2022/05/17 04:42:15;;;;;;;5.30;2.17;;;11.30;97.20;;;;;;5093190;28;20211;-66
2022/05/17 04:44:42;;;;;;;3.87;2.00;;;11.40;97.20;;;;;;5092576;28;20196;-65
2022/05/17 04:47:10;;;;;;;3.57;1.93;;;11.50;97.30;;;;;;5092771;28;20211;-67
2022/05/17 04:49:38;;;;;;;3.73;2.20;;;11.60;97.40;;;;;;5092668;28;20542;-66
2022/05/17 04:52:06;;;;;;;5.20;2.30;;;11.80;97.40;;;;;;5092379;28;20199;-67
2022/05/17 04:54:33;;;;;;;4.63;1.90;;;11.90;97.20;;;;;;5092453;28;20581;-65
2022/05/17 04:56:59;;;;;;;2.80;1.80;;;12.10;96.90;;;;;;5092146;28;20208;-67
2022/05/17 04:59:26;;;;;;;3.40;2.00;;;12.20;96.80;;;;;;5092017;28;20211;-66
2022/05/17 05:01:53;;;;;;;5.17;2.20;;;12.30;96.70;;;;;;5092012;28;20211;-66
2022/05/17 05:04:20;;;;;;;2.47;1.80;;;12.40;96.70;;;;;;5092356;28;20230;-67
2022/05/17 05:06:48;;;;;;;4.90;1.70;;;12.50;96.40;;;;;;5092097;28;20223;-66
2022/05/17 05:09:14;;;;;;;1.80;1.47;;;12.60;96.10;;;;;;5092208;28;20204;-65
2022/05/17 05:11:41;;;;;;;5.23;1.77;;;12.70;96.00;;;;;;5091988;28;20207;-66
2022/05/17 05:14:09;;;;;;;4.60;1.70;;;12.90;96.00;;;;;;5091603;28;20250;-65
2022/05/17 05:16:37;;;;;;;3.77;2.03;;;13.00;95.80;;;;;;5091542;28;20204;-66
2022/05/17 05:19:04;;;;;;;2.70;1.73;;;13.10;95.90;;;;;;5091787;28;20199;-66
2022/05/17 05:21:31;;;;;;;2.97;1.60;;;13.30;95.60;;;;;;5091747;28;20219;-65
2022/05/17 05:24:00;;;;;;;3.20;1.80;;;13.40;95.50;;;;;;5091946;28;20214;-66
2022/05/17 05:26:27;;;;;;;4.47;2.00;;;13.50;94.60;;;;;;5091396;28;20232;-66
2022/05/17 05:28:54;;;;;;;6.87;2.00;;;13.60;94.60;;;;;;5091780;28;20211;-66
2022/05/17 05:31:20;;;;;;;3.20;1.63;;;13.60;93.70;;;;;;5091843;28;20204;-66
2022/05/17 05:33:47;;;;;;;2.30;1.73;;;13.80;93.40;;;;;;5091937;28;20231;-68
2022/05/17 05:36:14;;;;;;;4.83;1.73;;;13.90;93.30;;;;;;5091744;28;20199;-69
2022/05/17 05:38:41;;;;;;;4.77;1.80;;;14.00;92.90;;;;;;5091256;28;20240;-66
2022/05/17 05:41:12;;;;;;;3.23;1.60;;;14.00;93.00;;;;;;5091603;28;20212;-66
2022/05/17 05:43:39;;;;;;;2.83;1.80;;;14.00;92.90;;;;;;5091137;28;20184;-66
2022/05/17 05:46:06;;;;;;;2.90;1.80;;;14.00;93.10;;;;;;5095784;28;20212;-66
2022/05/17 05:48:33;;;;;;;4.03;1.60;;;14.10;93.30;;;;;;5095887;28;20203;-67
2022/05/17 05:51:00;;;;;;;3.30;1.60;;;14.10;93.30;;;;;;5095630;28;20204;-66
2022/05/17 05:53:27;;;;;;;4.50;2.10;;;14.20;93.50;;;;;;5095589;28;20238;-68
2022/05/17 05:55:57;;;;;;;4.97;1.93;;;14.30;93.30;;;;;;5095771;28;20208;-67
2022/05/17 05:58:26;;;;;;;2.53;1.73;;;14.40;93.40;;;;;;5095515;28;20246;-67
2022/05/17 06:00:53;;;;;;;2.10;1.43;;;14.50;93.40;;;;;;5095703;28;20545;-66
2022/05/17 06:03:19;;;;;;;3.57;1.83;;;14.60;93.00;;;;;;5095402;28;20210;-67
2022/05/17 06:05:46;;;;;;;2.63;1.50;;;14.70;92.70;;;;;;5095321;28;20200;-70
2022/05/17 06:08:14;;;;;;;2.57;1.70;;;14.80;92.50;;;;;;5095682;28;20718;-67
2022/05/17 06:10:41;;;;;;;3.77;1.70;;;14.80;92.30;;;;;;5095534;28;20216;-66
2022/05/17 06:13:08;;;;;;;5.00;1.70;;;14.90;91.60;;;;;;5095540;28;20204;-67
2022/05/17 06:15:36;;;;;;;3.47;1.80;;;15.00;91.60;;;;;;5095900;28;20573;-67
2022/05/17 06:18:04;;;;;;;3.33;1.60;;;15.00;91.40;;;;;;5095149;28;20204;-69
2022/05/17 06:20:31;;;;;;;6.60;1.30;;;15.10;91.20;;;;;;5094962;28;20215;-67
2022/05/17 06:22:58;;;;;;;3.93;1.50;;;15.20;91.10;;;;;;5095025;28;20223;-68
2022/05/17 06:25:25;;;;;;;1.90;1.47;;;15.30;88.50;;;;;;5094829;28;20220;-67
2022/05/17 06:27:52;;;;;;;2.87;1.60;;;15.30;89.10;;;;;;5095061;28;20203;-67
2022/05/17 06:30:19;;;;;;;3.70;1.70;;;15.40;87.50;;;;;;5095120;28;20687;-67
2022/05/17 06:32:47;;;;;;;3.90;1.63;;;15.40;88.30;;;;;;5095137;28;20223;-67
2022/05/17 06:35:15;;;;;;;2.83;1.60;;;15.50;88.40;;;;;;5095265;28;20255;-65
2022/05/17 06:37:42;;;;;;;2.73;1.23;;;15.60;88.00;;;;;;5094889;28;20279;-66
2022/05/17 06:40:10;;;;;;;3.63;1.73;;;15.70;88.20;;;;;;5094797;28;20188;-68
2022/05/17 06:42:37;;;;;;;3.63;1.80;;;15.70;84.50;;;;;;5095038;28;20658;-67
2022/05/17 06:45:05;;;;;;;2.27;1.50;;;15.70;85.80;;;;;;5094557;28;20200;-66
2022/05/17 06:47:32;;;;;;;3.27;1.50;;;15.80;86.20;;;;;;5094727;28;20214;-68
2022/05/17 06:50:00;;;;;;;4.30;1.60;;;15.90;84.90;;;;;;5094582;28;20216;-67
2022/05/17 06:52:27;;;;;;;2.70;1.57;;;16.00;84.60;;;;;;5094549;28;20658;-67
2022/05/17 06:54:55;;;;;;;3.00;1.77;;;16.10;83.70;;;;;;5094823;28;20249;-66
2022/05/17 06:57:22;;;;;;;1.93;1.40;;;16.10;80.90;;;;;;5093753;28;20227;-66
2022/05/17 06:59:50;;;;;;;4.20;1.80;;;16.10;82.60;;;;;;5094522;28;20207;-67
2022/05/17 07:02:17;;;;;;;2.73;1.43;;;16.10;81.20;;;;;;5094157;28;20215;-66
2022/05/17 07:04:44;;;;;;;3.67;1.70;;;16.20;80.10;;;;;;5094514;28;20581;-67
2022/05/17 07:07:12;;;;;;;2.50;1.40;;;16.30;81.10;;;;;;5094267;28;20698;-67
2022/05/17 07:09:39;;;;;;;1.33;1.20;;;16.50;81.20;;;;;;5094391;28;20204;-67
2022/05/17 07:14:51;;;;;;;2.07;1.20;;;16.80;81.10;;;;;;5094185;28;20220;-67
2022/05/17 07:17:21;;;;;;;1.80;1.10;;;16.80;78.20;;;;;;5094215;28;20223;-67
2022/05/17 07:19:49;;;;;;;2.50;1.20;;;16.90;76.90;;;;;;5094223;28;20216;-66
2022/05/17 07:22:17;;;;;;;1.27;1.10;;;16.80;77.10;;;;;;5094028;28;20227;-69
2022/05/17 07:24:46;;;;;;;2.60;1.10;;;16.90;77.40;;;;;;5093830;28;20197;-67
2022/05/17 07:27:13;;;;;;;2.70;1.50;;;16.90;77.30;;;;;;5093595;28;20220;-68
2022/05/17 07:29:41;;;;;;;1.10;1.00;;;17.00;78.30;;;;;;5094019;28;20206;-67
2022/05/17 07:32:08;;;;;;;3.17;1.17;;;17.10;77.90;;;;;;5093876;28;20212;-67
2022/05/17 07:34:35;;;;;;;1.80;1.10;;;17.20;77.40;;;;;;5093775;28;20221;-65
2022/05/17 07:37:03;;;;;;;6.63;1.30;;;17.30;77.20;;;;;;5093809;28;20201;-67
2022/05/17 07:39:31;;;;;;;1.17;1.00;;;17.40;76.90;;;;;;5093454;28;20254;-68
2022/05/17 07:41:58;;;;;;;1.37;1.10;;;17.50;76.30;;;;;;5093914;28;20569;-67
2022/05/17 07:44:25;;;;;;;2.20;1.10;;;17.50;76.00;;;;;;5093159;28;20196;-67
2022/05/17 07:46:52;;;;;;;2.63;1.13;;;17.60;75.80;;;;;;5093309;28;20346;-65
2022/05/17 07:49:18;;;;;;;1.37;0.97;;;17.60;75.60;;;;;;5093480;28;20212;-67
2022/05/17 07:51:45;;;;;;;1.00;0.90;;;17.70;74.70;;;;;;5093538;28;20201;-66
2022/05/17 07:54:13;;;;;;;2.13;1.00;;;17.70;74.70;;;;;;5093521;28;20245;-66
2022/05/17 07:56:41;;;;;;;2.03;1.10;;;17.80;73.50;;;;;;5093560;28;20216;-66
2022/05/17 07:59:08;;;;;;;1.23;0.97;;;17.70;73.20;;;;;;5093184;28;20213;-66
2022/05/17 08:01:34;;;;;;;5.87;1.10;;;17.70;73.60;;;;;;5093071;28;20211;-66
2022/05/17 08:04:02;;;;;;;4.23;1.20;;;17.70;74.10;;;;;;5092871;28;20209;-67
2022/05/17 08:06:29;;;;;;;1.03;0.90;;;17.70;74.90;;;;;;5092949;28;20203;-67
2022/05/17 08:08:55;;;;;;;1.10;0.90;;;17.80;75.40;;;;;;5092480;28;20650;-66
2022/05/17 08:11:24;;;;;;;2.20;1.00;;;17.80;74.00;;;;;;5093225;28;20678;-67
2022/05/17 08:13:52;;;;;;;0.80;0.80;;;17.80;75.20;;;;;;5092953;28;20204;-66
2022/05/17 08:16:19;;;;;;;1.20;0.97;;;17.90;74.20;;;;;;5092651;28;20251;-67
2022/05/17 08:18:46;;;;;;;3.17;1.00;;;18.00;74.10;;;;;;5092697;28;20207;-66
2022/05/17 08:21:12;;;;;;;1.17;1.07;;;18.00;74.10;;;;;;5092551;28;20621;-67
2022/05/17 08:23:39;;;;;;;1.23;1.00;;;18.00;73.20;;;;;;5093009;28;20608;-66
2022/05/17 08:28:52;;;;;;;1.77;1.00;;;17.90;74.20;;;;;;5092748;28;20197;-67
2022/05/17 08:31:19;;;;;;;46.13;2.40;;;17.90;74.20;;;;;;5092804;28;20204;-66
2022/05/17 08:33:45;;;;;;;3.23;1.00;;;17.90;72.80;;;;;;5092969;28;20209;-67
2022/05/17 08:36:12;;;;;;;2.90;0.90;;;17.80;73.20;;;;;;5092727;28;20677;-66
2022/05/17 08:38:41;;;;;;;1.10;1.00;;;17.90;74.10;;;;;;5092411;28;20784;-66
2022/05/17 08:41:13;;;;;;;4.90;1.10;;;17.90;72.30;;;;;;5092445;28;20679;-67
2022/05/17 08:43:50;;;;;;;3.37;1.10;;;17.90;72.40;;;;;;5092785;28;20546;-67
2022/05/17 08:46:33;;;;;;;2.07;1.07;;;17.70;73.40;;;;;;5092256;28;20203;-65
2022/05/17 08:49:05;;;;;;;9.53;1.27;;;17.70;73.10;;;;;;5092091;28;20202;-66
2022/05/17 08:51:38;;;;;;;1.63;1.00;;;17.70;73.40;;;;;;5092584;28;20210;-67
2022/05/17 08:54:08;;;;;;;1.70;1.10;;;17.80;73.90;;;;;;5092208;28;20190;-67
2022/05/17 08:56:38;;;;;;;1.07;1.00;;;17.90;73.30;;;;;;5091930;28;20208;-66
2022/05/17 08:59:07;;;;;;;0.80;0.80;;;18.00;74.30;;;;;;5091953;28;20193;-68
2022/05/17 09:01:44;;;;;;;1.40;1.03;;;17.90;71.90;;;;;;5092636;28;20229;-68
2022/05/17 09:04:30;;;;;;;1.07;0.97;;;17.70;72.00;;;;;;5092210;28;20196;-67
2022/05/17 09:07:03;;;;;;;1.87;1.17;;;17.70;73.10;;;;;;5092573;28;20631;-67
2022/05/17 09:09:35;;;;;;;1.93;1.20;;;17.80;73.70;;;;;;5092397;28;20192;-67
2022/05/17 09:12:08;;;;;;;2.83;1.10;;;17.90;74.20;;;;;;5092279;28;20551;-67
2022/05/17 09:14:42;;;;;;;3.73;1.20;;;17.90;74.00;;;;;;5092247;28;20667;-68
2022/05/17 09:17:14;;;;;;;1.63;1.20;;;18.10;74.70;;;;;;5091995;28;20203;-66
2022/05/17 09:19:41;;;;;;;3.97;1.00;;;18.10;70.70;;;;;;5091849;28;20661;-67
2022/05/17 09:22:09;;;;;;;3.23;1.00;;;18.20;72.30;;;;;;5092083;28;20202;-67
2022/05/17 09:24:39;;;;;;;4.90;1.20;;;18.20;73.10;;;;;;5091768;28;20206;-67
2022/05/17 09:27:08;;;;;;;2.63;1.27;;;18.30;73.40;;;;;;5091820;28;20200;-67
2022/05/17 09:29:39;;;;;;;7.37;1.53;;;18.30;72.30;;;;;;5091964;28;20208;-68
2022/05/17 09:32:08;;;;;;;1.63;1.10;;;18.20;72.90;;;;;;5091938;28;20239;-67
2022/05/17 09:34:39;;;;;;;3.37;1.50;;;18.10;73.00;;;;;;5092044;28;20231;-67
2022/05/17 09:37:10;;;;;;;8.77;1.57;;;18.10;73.30;;;;;;5092140;28;20196;-69
2022/05/17 09:39:37;;;;;;;8.53;1.50;;;18.20;74.00;;;;;;5091914;28;20240;-67
2022/05/17 09:42:08;;;;;;;4.90;1.40;;;18.20;73.50;;;;;;5091844;28;20223;-66
2022/05/17 09:44:41;;;;;;;2.60;1.30;;;18.10;74.10;;;;;;5092068;28;20203;-67
2022/05/17 09:47:14;;;;;;;3.87;1.50;;;18.10;73.50;;;;;;5091798;28;20199;-68
2022/05/17 09:52:35;;;;;;;2.07;1.30;;;17.80;74.20;;;;;;5091475;28;20192;-66
2022/05/17 09:55:22;;;;;;;3.37;1.30;;;17.90;74.10;;;;;;5091626;28;20213;-66
2022/05/17 09:57:54;;;;;;;3.70;1.30;;;17.90;75.50;;;;;;5091623;28;20195;-66
2022/05/17 10:00:27;;;;;;;3.50;1.50;;;18.10;75.40;;;;;;5091720;28;20543;-67
2022/05/17 10:03:00;;;;;;;3.17;1.50;;;18.30;73.60;;;;;;5091295;28;20212;-66
2022/05/17 10:05:43;;;;;;;3.53;1.63;;;18.50;73.50;;;;;;5091367;28;20189;-68
2022/05/17 10:08:30;;;;;;;10.23;3.00;;;18.60;73.00;;;;;;5091416;28;20200;-67
2022/05/17 10:11:04;;;;;;;3.30;1.50;;;18.60;73.40;;;;;;5091446;28;20216;-66
2022/05/17 10:13:36;;;;;;;4.13;1.47;;;18.60;70.70;;;;;;5091589;28;20627;-66
2022/05/17 10:16:08;;;;;;;7.50;1.47;;;18.40;69.50;;;;;;5091399;28;20215;-67
2022/05/17 10:18:41;;;;;;;1.93;1.17;;;18.50;71.30;;;;;;5091154;28;20238;-66
2022/05/17 10:21:18;;;;;;;5.40;1.33;;;18.50;71.90;;;;;;5091470;28;20638;-67
2022/05/17 10:23:50;;;;;;;1.97;1.37;;;18.60;71.60;;;;;;5091348;28;20192;-67
2022/05/17 10:26:21;;;;;;;2.73;1.50;;;18.70;71.30;;;;;;5091187;28;20218;-66
2022/05/17 10:28:53;;;;;;;2.10;1.50;;;18.80;72.00;;;;;;5091235;28;20187;-66
2022/05/17 10:31:24;;;;;;;5.37;1.20;;;18.80;71.60;;;;;;5092489;28;20617;-66
2022/05/17 10:34:21;;;;;;;2.67;1.30;;;18.70;70.70;;;;;;5095077;28;20197;-67
2022/05/17 10:36:55;;;;;;;5.10;1.53;;;18.70;71.40;;;;;;5094949;28;20235;-66
2022/05/17 10:39:29;;;;;;;4.17;1.40;;;18.70;71.40;;;;;;5094616;28;20736;-68
2022/05/17 10:41:57;;;;;;;4.60;1.30;;;18.60;71.80;;;;;;5094978;28;20240;-65
2022/05/17 10:44:26;;;;;;;2.20;1.43;;;18.60;71.80;;;;;;5094838;28;20208;-66
2022/05/17 10:46:57;;;;;;;2.40;1.10;;;18.60;71.80;;;;;;5094410;28;20213;-68
2022/05/17 10:49:33;;;;;;;2.33;1.30;;;18.70;71.70;;;;;;5094843;28;20203;-67
2022/05/17 10:52:07;;;;;;;2.87;1.20;;;18.70;71.60;;;;;;5094606;28;20599;-65
2022/05/17 10:54:45;;;;;;;3.33;1.20;;;18.70;71.70;;;;;;5094493;28;20196;-66
2022/05/17 10:57:20;;;;;;;5.87;1.40;;;18.70;72.50;;;;;;5094459;28;20199;-67
2022/05/17 11:00:01;;;;;;;2.60;1.10;;;18.60;73.70;;;;;;5094521;28;20188;-67
2022/05/17 11:03:06;;;;;;;4.67;1.40;;;18.60;73.40;;;;;;5094635;28;20199;-66
2022/05/17 11:05:45;;;;;;;3.17;1.20;;;18.60;72.70;;;;;;5084394;28;20664;-67
2022/05/17 11:08:20;;;;;;;6.93;1.43;;;18.70;71.90;;;;;;5094650;28;20194;-67
2022/05/17 11:10:58;;;;;;;4.97;1.30;;;18.80;70.90;;;;;;5094462;28;20192;-67
2022/05/17 11:13:30;;;;;;;2.83;1.27;;;18.90;71.10;;;;;;5094674;28;20207;-66
2022/05/17 11:16:01;;;;;;;6.77;1.53;;;19.00;71.20;;;;;;5094256;28;20218;-67
2022/05/17 11:18:39;;;;;;;1.10;1.00;;;19.00;70.40;;;;;;5094426;28;20202;-66
2022/05/17 11:21:11;;;;;;;2.87;1.50;;;18.90;70.20;;;;;;5094441;28;20626;-67
2022/05/17 11:23:46;;;;;;;4.93;1.30;;;19.00;71.30;;;;;;5093952;28;20630;-67
2022/05/17 11:26:48;;;;;;;7.20;1.50;;;19.00;71.10;;;;;;5094319;28;20249;-68
2022/05/17 11:29:36;;;;;;;10.40;1.20;;;19.00;69.90;;;;;;5093767;28;20189;-67
2022/05/17 11:32:21;;;;;;;4.23;1.40;;;18.90;69.30;;;;;;5093795;28;20583;-69
2022/05/17 11:34:48;;;;;;;2.07;1.40;;;19.00;68.90;;;;;;5093776;28;20191;-69
2022/05/17 11:37:49;;;;;;;5.10;1.80;;;18.90;69.10;;;;;;5093890;28;20208;-71
2022/05/17 11:40:49;;;;;;;1.57;1.20;;;18.80;69.20;;;;;;5094038;28;20210;-67
2022/05/17 11:43:43;;;;;;;5.30;1.40;;;18.80;69.20;;;;;;5093576;28;20211;-69
2022/05/17 11:46:45;;;;;;;1.77;1.10;;;18.70;69.20;;;;;;5093873;28;20210;-67
2022/05/17 11:49:47;;;;;;;8.03;1.73;;;18.60;68.20;;;;;;5089200;28;20202;-66
2022/05/17 11:52:27;;;;;;;7.10;1.40;;;18.60;68.80;;;;;;5093156;28;20190;-67
2022/05/17 11:54:54;;;;;;;3.87;1.40;;;18.80;68.20;;;;;;5093161;28;20190;-67
2022/05/17 11:58:03;;;;;;;5.73;1.30;;;18.80;66.90;;;;;;5093250;28;20228;-68
2022/05/17 12:00:58;;;;;;;5.67;1.43;;;19.00;65.30;;;;;;5093173;28;20185;-67
2022/05/17 12:03:52;;;;;;;7.07;1.53;;;19.10;63.90;;;;;;5093239;28;20188;-67
2022/05/17 12:06:32;;;;;;;10.10;1.60;;;19.10;65.10;;;;;;5093513;28;20679;-67
2022/05/17 12:08:59;;;;;;;7.17;1.57;;;19.20;64.90;;;;;;5093476;28;20191;-67
2022/05/17 12:11:54;;;;;;;7.67;1.40;;;19.40;64.00;;;;;;5093032;28;20211;-67
2022/05/17 12:14:27;;;;;;;6.90;1.53;;;19.50;62.10;;;;;;5050321;28;20205;-67
2022/05/17 12:17:00;;;;;;;7.70;1.60;;;19.50;61.00;;;;;;5050425;28;20759;-67
2022/05/17 12:19:32;;;;;;;6.03;1.57;;;19.40;59.70;;;;;;5050066;28;20206;-66
2022/05/17 12:22:06;;;;;;;12.70;2.60;;;19.30;56.90;;;;;;5050378;28;20240;-66
2022/05/17 12:24:55;;;;;;;9.00;1.80;;;19.00;57.40;;;;;;5049984;28;20398;-67
2022/05/17 12:27:24;;;;;;;11.80;1.60;;;18.90;59.00;;;;;;5050241;28;20254;-66
2022/05/17 12:32:41;;;;;;;7.97;1.70;;;19.00;58.70;;;;;;5050034;28;20181;-66
2022/05/17 12:35:09;;;;;;;12.07;1.70;;;19.00;59.00;;;;;;5049816;28;20218;-67
2022/05/17 12:37:42;;;;;;;8.80;1.67;;;19.00;58.30;;;;;;5049708;28;20211;-66
2022/05/17 12:43:03;;;;;;;7.47;1.70;;;19.10;57.50;;;;;;5049801;28;20184;-66
2022/05/17 12:45:32;;;;;;;8.10;2.27;;;19.10;56.70;;;;;;5071933;28;20750;-66
2022/05/17 12:48:03;;;;;;;7.80;1.50;;;19.00;55.10;;;;;;5092491;28;20208;-66
2022/05/17 12:50:41;;;;;;;5.10;1.60;;;18.90;53.80;;;;;;5092197;28;20215;-67
2022/05/17 12:53:14;;;;;;;7.80;1.80;;;18.90;53.70;;;;;;5092641;28;20195;-68
2022/05/17 12:55:41;;;;;;;3.40;1.70;;;18.90;52.40;;;;;;5092315;28;20216;-68
2022/05/17 12:58:10;;;;;;;8.03;1.87;;;18.70;53.50;;;;;;5092222;28;20264;-66
2022/05/17 13:00:37;;;;;;;4.27;1.50;;;18.70;53.10;;;;;;5091843;28;20204;-68
2022/05/17 13:03:16;;;;;;;6.37;1.50;;;18.80;52.90;;;;;;5092319;28;20215;-68
2022/05/17 13:05:48;;;;;;;2.90;1.50;;;18.80;50.20;;;;;;5091903;28;20186;-66
2022/05/17 13:08:19;;;;;;;9.10;1.90;;;18.70;49.30;;;;;;5092268;28;20579;-67
2022/05/17 13:11:02;;;;;;;3.73;1.33;;;18.70;49.80;;;;;;5092290;28;20199;-66
2022/05/17 13:13:31;;;;;;;5.37;1.70;;;18.80;50.00;;;;;;5091807;28;20195;-68
2022/05/17 13:16:02;;;;;;;5.93;1.70;;;18.80;48.90;;;;;;5092263;28;20691;-67
2022/05/17 13:18:39;;;;;;;6.80;2.00;;;18.70;49.00;;;;;;5091739;28;20190;-68
2022/05/17 13:21:09;;;;;;;6.30;1.85;;;18.60;49.10;;;;;;5091106;28;20417;-66